Capitol Logistics 3257




KRSW
Southwest Florida International Airport
Fort Myers, Florida
KMIA
Miami International Airport
Miami, Florida

Activity Log

Date Flight Route Aircraft Duration
04/05/2021 CPX3257 CYY CYY9 SF34 0h 35m
03/20/2021 CPX3257 SCUBY7 COOPR CORFU V35 CURVE ANGRO SF34 1h 00m
06/17/2019 CPX657 CYY CYY9 SF34 0h 32m

Route Details

Aircraft Information
Primary: Saab 340AF
Backup: Not Available
Route Data
Distance: 91nm
Duration: 1h 00m
Recm'd Route: CYY CYY9
Origin Wx: KRSW 141955Z 15010G16KT 110V200 10SM CLR 31/13 A3003 RMK AO2 T03060133
Dest. Wx: KMIA 141953Z 11013KT 10SM FEW040 27/17 A3005 RMK AO2 SLP177 T02720172 $
Notes: